FYI13P LEMD-LEBL
Flight info
| Callsign | FYI13P |
|---|---|
| Flight time | 0h 53m |
| Altitude | 30000 |
| Route | PINAR N870 PONEN T600 CASPE |
| Aircraft | A320/M-SDE3FGHIRWY/LB1 |
Departure
| Time | 2026-05-07 20:19 |
|---|---|
| Airport | Adolfo Suárez Madrid–Barajas Airport (LEMD) |
Arrival
| Time | 2026-05-07 21:12 |
|---|---|
| Airport | Josep Tarradellas Barcelona-El Prat Airport (LEBL) |
| Time | Latitude | Longitude | Altitude | Speed | Heading |
|---|---|---|---|---|---|
| 2026-05-07 19:58 | 40.49444 | -3.58971 | 2031 ft | 0 kts | 270° |
| 2026-05-07 20:11 | 40.49444 | -3.58963 | 2038 ft | 4 kts | 270° |
| 2026-05-07 20:11 | 40.49444 | -3.58929 | 2027 ft | 2 kts | 270° |
| 2026-05-07 20:12 | 40.49446 | -3.58900 | 2033 ft | 4 kts | 236° |
| 2026-05-07 20:12 | 40.49464 | -3.58884 | 2022 ft | 3 kts | 181° |
| 2026-05-07 20:12 | 40.49480 | -3.58884 | 2033 ft | 0 kts | 180° |
| 2026-05-07 20:15 | 40.49469 | -3.58884 | 2063 ft | 7 kts | 180° |
| 2026-05-07 20:15 | 40.49407 | -3.58883 | 2056 ft | 9 kts | 179° |
| 2026-05-07 20:15 | 40.49333 | -3.58883 | 2061 ft | 12 kts | 180° |
| 2026-05-07 20:15 | 40.49250 | -3.58866 | 2062 ft | 13 kts | 140° |
| 2026-05-07 20:16 | 40.49240 | -3.58737 | 2060 ft | 16 kts | 90° |
| 2026-05-07 20:16 | 40.49240 | -3.58578 | 2060 ft | 19 kts | 90° |
| 2026-05-07 20:16 | 40.49241 | -3.58382 | 2045 ft | 25 kts | 90° |
| 2026-05-07 20:16 | 40.49242 | -3.58152 | 2039 ft | 23 kts | 90° |
| 2026-05-07 20:17 | 40.49243 | -3.57919 | 2031 ft | 27 kts | 89° |
| 2026-05-07 20:17 | 40.49244 | -3.57699 | 2023 ft | 14 kts | 89° |
| 2026-05-07 20:17 | 40.49270 | -3.57554 | 2021 ft | 13 kts | 63° |
| 2026-05-07 20:17 | 40.49329 | -3.57449 | 2019 ft | 12 kts | 12° |
| 2026-05-07 20:18 | 40.49379 | -3.57451 | 2018 ft | 4 kts | 359° |
| 2026-05-07 20:18 | 40.49430 | -3.57452 | 2018 ft | 18 kts | 359° |
| 2026-05-07 20:18 | 40.49804 | -3.57454 | 2021 ft | 89 kts | 359° |
| 2026-05-07 20:18 | 40.50616 | -3.57461 | 2029 ft | 142 kts | 360° |
| 2026-05-07 20:19 | 40.51752 | -3.57468 | 2094 ft | 179 kts | 1° |
| 2026-05-07 20:19 | 40.52958 | -3.57484 | 2793 ft | 171 kts | 0° |
| 2026-05-07 20:19 | 40.54155 | -3.57505 | 3501 ft | 173 kts | 360° |
| 2026-05-07 20:19 | 40.55397 | -3.57428 | 3969 ft | 187 kts | 14° |
| 2026-05-07 20:20 | 40.56733 | -3.56983 | 4262 ft | 209 kts | 17° |
| 2026-05-07 20:20 | 40.58200 | -3.56402 | 4569 ft | 233 kts | 19° |
| 2026-05-07 20:20 | 40.59790 | -3.55745 | 5174 ft | 243 kts | 18° |
| 2026-05-07 20:20 | 40.61407 | -3.55105 | 5940 ft | 248 kts | 17° |
| 2026-05-07 20:21 | 40.63075 | -3.54461 | 6676 ft | 253 kts | 15° |
| 2026-05-07 20:21 | 40.64864 | -3.54065 | 7246 ft | 267 kts | 8° |
| 2026-05-07 20:21 | 40.66611 | -3.53153 | 7639 ft | 286 kts | 40° |
| 2026-05-07 20:21 | 40.68007 | -3.51245 | 8315 ft | 293 kts | 50° |
| 2026-05-07 20:22 | 40.69317 | -3.49167 | 9122 ft | 297 kts | 51° |
| 2026-05-07 20:22 | 40.70630 | -3.47035 | 9940 ft | 301 kts | 51° |
| 2026-05-07 20:22 | 40.71990 | -3.44855 | 10413 ft | 318 kts | 51° |
| 2026-05-07 20:22 | 40.73466 | -3.42545 | 10711 ft | 338 kts | 50° |
| 2026-05-07 20:23 | 40.75023 | -3.40166 | 11358 ft | 345 kts | 49° |
| 2026-05-07 20:23 | 40.75870 | -3.38890 | 11749 ft | 348 kts | 49° |
| 2026-05-07 20:23 | 40.76365 | -3.38147 | 11986 ft | 349 kts | 49° |
| 2026-05-07 20:23 | 40.77979 | -3.35736 | 12707 ft | 353 kts | 49° |
| 2026-05-07 20:24 | 40.79591 | -3.33332 | 13419 ft | 356 kts | 49° |
| 2026-05-07 20:24 | 40.81243 | -3.30867 | 14099 ft | 360 kts | 49° |
| 2026-05-07 20:24 | 40.82909 | -3.28380 | 14722 ft | 363 kts | 49° |
| 2026-05-07 20:24 | 40.84481 | -3.25757 | 15341 ft | 366 kts | 58° |
| 2026-05-07 20:25 | 40.85661 | -3.22761 | 15961 ft | 369 kts | 69° |
| 2026-05-07 20:25 | 40.86402 | -3.19545 | 16564 ft | 372 kts | 77° |
| 2026-05-07 20:25 | 40.87045 | -3.16216 | 17196 ft | 375 kts | 76° |
| 2026-05-07 20:25 | 40.87706 | -3.12865 | 17790 ft | 379 kts | 76° |
| 2026-05-07 20:26 | 40.88150 | -3.10627 | 18189 ft | 382 kts | 76° |
| 2026-05-07 20:26 | 40.89049 | -3.06103 | 18879 ft | 386 kts | 76° |
| 2026-05-07 20:26 | 40.89730 | -3.02661 | 19439 ft | 388 kts | 77° |
| 2026-05-07 20:26 | 40.90412 | -2.99193 | 19982 ft | 391 kts | 77° |
| 2026-05-07 20:27 | 40.91095 | -2.95711 | 20518 ft | 393 kts | 77° |
| 2026-05-07 20:27 | 40.91780 | -2.92205 | 21052 ft | 395 kts | 77° |
| 2026-05-07 20:27 | 40.92235 | -2.89873 | 21393 ft | 397 kts | 77° |
| 2026-05-07 20:27 | 40.93160 | -2.85129 | 22060 ft | 400 kts | 77° |
| 2026-05-07 20:28 | 40.93618 | -2.82768 | 22393 ft | 401 kts | 77° |
| 2026-05-07 20:28 | 40.94541 | -2.78006 | 23044 ft | 405 kts | 77° |
| 2026-05-07 20:28 | 40.95011 | -2.75566 | 23387 ft | 406 kts | 77° |
| 2026-05-07 20:28 | 40.95937 | -2.70757 | 23927 ft | 409 kts | 77° |
| 2026-05-07 20:29 | 40.96406 | -2.68334 | 24182 ft | 411 kts | 77° |
| 2026-05-07 20:29 | 40.97119 | -2.64654 | 24562 ft | 414 kts | 78° |
| 2026-05-07 20:29 | 40.97835 | -2.60961 | 24950 ft | 416 kts | 78° |
| 2026-05-07 20:29 | 40.98554 | -2.57238 | 25319 ft | 419 kts | 78° |
| 2026-05-07 20:30 | 40.99274 | -2.53491 | 25679 ft | 422 kts | 78° |
| 2026-05-07 20:30 | 40.99992 | -2.49713 | 26032 ft | 425 kts | 78° |
| 2026-05-07 20:30 | 41.00712 | -2.45909 | 26379 ft | 427 kts | 78° |
| 2026-05-07 20:30 | 41.01434 | -2.42078 | 26723 ft | 430 kts | 78° |
| 2026-05-07 20:31 | 41.02162 | -2.38222 | 27053 ft | 433 kts | 78° |
| 2026-05-07 20:31 | 41.02895 | -2.34340 | 27388 ft | 436 kts | 78° |
| 2026-05-07 20:31 | 41.03625 | -2.30489 | 27712 ft | 439 kts | 78° |
| 2026-05-07 20:31 | 41.04371 | -2.26551 | 28022 ft | 442 kts | 79° |
| 2026-05-07 20:32 | 41.05123 | -2.22581 | 28312 ft | 446 kts | 79° |
| 2026-05-07 20:32 | 41.05879 | -2.18589 | 28630 ft | 449 kts | 79° |
| 2026-05-07 20:32 | 41.06640 | -2.14556 | 28943 ft | 452 kts | 79° |
| 2026-05-07 20:32 | 41.07403 | -2.10506 | 29255 ft | 455 kts | 79° |
| 2026-05-07 20:33 | 41.08168 | -2.06429 | 29556 ft | 457 kts | 80° |
| 2026-05-07 20:33 | 41.08934 | -2.02325 | 29837 ft | 460 kts | 80° |
| 2026-05-07 20:33 | 41.09694 | -1.98258 | 29938 ft | 456 kts | 80° |
| 2026-05-07 20:33 | 41.10446 | -1.94253 | 29947 ft | 441 kts | 80° |
| 2026-05-07 20:34 | 41.11179 | -1.90338 | 29936 ft | 436 kts | 81° |
| 2026-05-07 20:34 | 41.12611 | -1.82556 | 29947 ft | 433 kts | 80° |
| 2026-05-07 20:35 | 41.14025 | -1.74792 | 29946 ft | 433 kts | 80° |
| 2026-05-07 20:35 | 41.15445 | -1.67025 | 29946 ft | 433 kts | 80° |
| 2026-05-07 20:36 | 41.16863 | -1.59304 | 29942 ft | 433 kts | 80° |
| 2026-05-07 20:36 | 41.18274 | -1.51539 | 29932 ft | 433 kts | 81° |
| 2026-05-07 20:37 | 41.19676 | -1.43777 | 29937 ft | 432 kts | 81° |
| 2026-05-07 20:37 | 41.21076 | -1.36016 | 29937 ft | 432 kts | 81° |
| 2026-05-07 20:38 | 41.22464 | -1.28308 | 29938 ft | 432 kts | 81° |
| 2026-05-07 20:38 | 41.23859 | -1.20542 | 29936 ft | 432 kts | 81° |
| 2026-05-07 20:39 | 41.25238 | -1.12786 | 29926 ft | 431 kts | 81° |
| 2026-05-07 20:39 | 41.26609 | -1.05038 | 29939 ft | 430 kts | 81° |
| 2026-05-07 20:40 | 41.27968 | -0.97353 | 29939 ft | 429 kts | 81° |
| 2026-05-07 20:40 | 41.29326 | -0.89633 | 29935 ft | 429 kts | 81° |
| 2026-05-07 20:41 | 41.30680 | -0.81917 | 29930 ft | 428 kts | 81° |
| 2026-05-07 20:41 | 41.32021 | -0.74202 | 29910 ft | 428 kts | 82° |
| 2026-05-07 20:42 | 41.33361 | -0.66482 | 29911 ft | 429 kts | 82° |
| 2026-05-07 20:42 | 41.34687 | -0.58796 | 29918 ft | 428 kts | 83° |
| 2026-05-07 20:43 | 41.34961 | -0.51006 | 29916 ft | 418 kts | 102° |
| 2026-05-07 20:43 | 41.34164 | -0.43842 | 29913 ft | 416 kts | 104° |
| 2026-05-07 20:44 | 41.33340 | -0.36492 | 29917 ft | 416 kts | 104° |
| 2026-05-07 20:44 | 41.32486 | -0.28893 | 29914 ft | 416 kts | 104° |
| 2026-05-07 20:45 | 41.31624 | -0.21287 | 29916 ft | 415 kts | 104° |
| 2026-05-07 20:45 | 41.31192 | -0.17502 | 29608 ft | 412 kts | 104° |
| 2026-05-07 20:45 | 41.30765 | -0.13748 | 29120 ft | 409 kts | 104° |
| 2026-05-07 20:45 | 41.30331 | -0.09978 | 28664 ft | 415 kts | 103° |
| 2026-05-07 20:46 | 41.29895 | -0.06192 | 28223 ft | 414 kts | 103° |
| 2026-05-07 20:46 | 41.29458 | -0.02418 | 27757 ft | 412 kts | 103° |
| 2026-05-07 20:46 | 41.29020 | 0.01336 | 27290 ft | 410 kts | 103° |
| 2026-05-07 20:46 | 41.28591 | 0.05023 | 26850 ft | 408 kts | 103° |
| 2026-05-07 20:47 | 41.28160 | 0.08740 | 26376 ft | 405 kts | 103° |
| 2026-05-07 20:47 | 41.27729 | 0.12430 | 25920 ft | 402 kts | 102° |
| 2026-05-07 20:47 | 41.27299 | 0.16090 | 25436 ft | 400 kts | 102° |
| 2026-05-07 20:47 | 41.26872 | 0.19724 | 24979 ft | 397 kts | 102° |
| 2026-05-07 20:48 | 41.26440 | 0.23334 | 24606 ft | 394 kts | 102° |
| 2026-05-07 20:48 | 41.25997 | 0.26912 | 24274 ft | 392 kts | 102° |
| 2026-05-07 20:48 | 41.25544 | 0.30477 | 23934 ft | 390 kts | 102° |
| 2026-05-07 20:48 | 41.25088 | 0.34011 | 23596 ft | 388 kts | 102° |
| 2026-05-07 20:49 | 41.24642 | 0.37490 | 23227 ft | 386 kts | 102° |
| 2026-05-07 20:49 | 41.24193 | 0.40993 | 22900 ft | 385 kts | 103° |
| 2026-05-07 20:49 | 41.23744 | 0.44495 | 22557 ft | 384 kts | 103° |
| 2026-05-07 20:49 | 41.23295 | 0.47985 | 22230 ft | 382 kts | 103° |
| 2026-05-07 20:50 | 41.22848 | 0.51458 | 21898 ft | 380 kts | 103° |
| 2026-05-07 20:50 | 41.22391 | 0.54911 | 21556 ft | 378 kts | 105° |
| 2026-05-07 20:50 | 41.21570 | 0.58187 | 21235 ft | 371 kts | 118° |
| 2026-05-07 20:50 | 41.20256 | 0.61098 | 20909 ft | 365 kts | 131° |
| 2026-05-07 20:51 | 41.18556 | 0.63568 | 20599 ft | 361 kts | 138° |
| 2026-05-07 20:51 | 41.16812 | 0.65891 | 20298 ft | 360 kts | 138° |
| 2026-05-07 20:51 | 41.15046 | 0.68252 | 19980 ft | 360 kts | 137° |
| 2026-05-07 20:51 | 41.13289 | 0.70606 | 19668 ft | 358 kts | 138° |
| 2026-05-07 20:52 | 41.11542 | 0.72945 | 19353 ft | 357 kts | 137° |
| 2026-05-07 20:52 | 41.09794 | 0.75279 | 19043 ft | 356 kts | 138° |
| 2026-05-07 20:52 | 41.08050 | 0.77602 | 18734 ft | 356 kts | 137° |
| 2026-05-07 20:52 | 41.06304 | 0.79928 | 18426 ft | 356 kts | 137° |
| 2026-05-07 20:53 | 41.04559 | 0.82252 | 18095 ft | 355 kts | 137° |
| 2026-05-07 20:53 | 41.02817 | 0.84565 | 17776 ft | 354 kts | 137° |
| 2026-05-07 20:53 | 41.01109 | 0.86833 | 17473 ft | 352 kts | 137° |
| 2026-05-07 20:53 | 40.99446 | 0.89204 | 17163 ft | 352 kts | 129° |
| 2026-05-07 20:54 | 40.98214 | 0.91998 | 16858 ft | 353 kts | 114° |
| 2026-05-07 20:54 | 40.97533 | 0.95107 | 16545 ft | 353 kts | 102° |
| 2026-05-07 20:54 | 40.97067 | 0.98292 | 16235 ft | 351 kts | 103° |
| 2026-05-07 20:54 | 40.96598 | 1.01456 | 15934 ft | 349 kts | 102° |
| 2026-05-07 20:55 | 40.96129 | 1.04598 | 15623 ft | 347 kts | 102° |
| 2026-05-07 20:55 | 40.95667 | 1.07687 | 15328 ft | 347 kts | 102° |
| 2026-05-07 20:55 | 40.95198 | 1.10800 | 15024 ft | 344 kts | 102° |
| 2026-05-07 20:55 | 40.94730 | 1.13891 | 14725 ft | 341 kts | 102° |
| 2026-05-07 20:56 | 40.94265 | 1.16959 | 14423 ft | 340 kts | 102° |
| 2026-05-07 20:56 | 40.93801 | 1.20024 | 14132 ft | 338 kts | 102° |
| 2026-05-07 20:56 | 40.93341 | 1.23065 | 13827 ft | 336 kts | 101° |
| 2026-05-07 20:56 | 40.92883 | 1.26080 | 13510 ft | 334 kts | 101° |
| 2026-05-07 20:57 | 40.92427 | 1.29078 | 13218 ft | 332 kts | 102° |
| 2026-05-07 20:57 | 40.91974 | 1.32059 | 12926 ft | 330 kts | 102° |
| 2026-05-07 20:57 | 40.91530 | 1.34982 | 12641 ft | 328 kts | 102° |
| 2026-05-07 20:57 | 40.91080 | 1.37930 | 12350 ft | 326 kts | 102° |
| 2026-05-07 20:58 | 40.90632 | 1.40859 | 12063 ft | 325 kts | 102° |
| 2026-05-07 20:58 | 40.90186 | 1.43773 | 11768 ft | 322 kts | 101° |
| 2026-05-07 20:58 | 40.89746 | 1.46657 | 11556 ft | 316 kts | 101° |
| 2026-05-07 20:58 | 40.89316 | 1.49455 | 11413 ft | 306 kts | 102° |
| 2026-05-07 20:59 | 40.88894 | 1.52167 | 10991 ft | 298 kts | 102° |
| 2026-05-07 20:59 | 40.88480 | 1.54835 | 10704 ft | 295 kts | 102° |
| 2026-05-07 20:59 | 40.88174 | 1.57473 | 10458 ft | 294 kts | 90° |
| 2026-05-07 20:59 | 40.88525 | 1.60110 | 10212 ft | 293 kts | 68° |
| 2026-05-07 21:00 | 40.89614 | 1.62361 | 9963 ft | 292 kts | 45° |
| 2026-05-07 21:00 | 40.91260 | 1.63864 | 9820 ft | 290 kts | 23° |
| 2026-05-07 21:00 | 40.93209 | 1.64446 | 9679 ft | 288 kts | 1° |
| 2026-05-07 21:00 | 40.95182 | 1.64039 | 9550 ft | 288 kts | 343° |
| 2026-05-07 21:01 | 40.97106 | 1.63283 | 9413 ft | 288 kts | 343° |
| 2026-05-07 21:01 | 40.98999 | 1.62533 | 9180 ft | 281 kts | 344° |
| 2026-05-07 21:01 | 41.00857 | 1.61797 | 8880 ft | 277 kts | 344° |
| 2026-05-07 21:01 | 41.02661 | 1.61083 | 8633 ft | 271 kts | 345° |
| 2026-05-07 21:02 | 41.04429 | 1.60383 | 8568 ft | 258 kts | 344° |
| 2026-05-07 21:02 | 41.06093 | 1.59642 | 8491 ft | 248 kts | 336° |
| 2026-05-07 21:02 | 41.07654 | 1.58695 | 8378 ft | 247 kts | 336° |
| 2026-05-07 21:02 | 41.09222 | 1.57751 | 8259 ft | 247 kts | 338° |
| 2026-05-07 21:03 | 41.10877 | 1.57359 | 8137 ft | 242 kts | 11° |
| 2026-05-07 21:03 | 41.12377 | 1.58276 | 7893 ft | 241 kts | 46° |
| 2026-05-07 21:03 | 41.13255 | 1.60133 | 7528 ft | 238 kts | 66° |
| 2026-05-07 21:03 | 41.13941 | 1.62126 | 7197 ft | 237 kts | 66° |
| 2026-05-07 21:04 | 41.14617 | 1.64090 | 6865 ft | 237 kts | 67° |
| 2026-05-07 21:04 | 41.15296 | 1.66060 | 6548 ft | 230 kts | 66° |
| 2026-05-07 21:04 | 41.15936 | 1.67941 | 6307 ft | 218 kts | 68° |
| 2026-05-07 21:04 | 41.16557 | 1.69746 | 6029 ft | 213 kts | 66° |
| 2026-05-07 21:05 | 41.17170 | 1.71517 | 5750 ft | 209 kts | 66° |
| 2026-05-07 21:05 | 41.17778 | 1.73266 | 5472 ft | 207 kts | 67° |
| 2026-05-07 21:05 | 41.18377 | 1.74994 | 5196 ft | 205 kts | 67° |
| 2026-05-07 21:05 | 41.18967 | 1.76693 | 4926 ft | 200 kts | 67° |
| 2026-05-07 21:06 | 41.19542 | 1.78353 | 4665 ft | 195 kts | 66° |
| 2026-05-07 21:06 | 41.20092 | 1.79940 | 4394 ft | 189 kts | 67° |
| 2026-05-07 21:06 | 41.20634 | 1.81504 | 4178 ft | 182 kts | 67° |
| 2026-05-07 21:06 | 41.21151 | 1.83000 | 3923 ft | 176 kts | 68° |
| 2026-05-07 21:07 | 41.21658 | 1.84467 | 3686 ft | 175 kts | 66° |
| 2026-05-07 21:07 | 41.22164 | 1.85930 | 3450 ft | 173 kts | 66° |
| 2026-05-07 21:07 | 41.22665 | 1.87380 | 3224 ft | 171 kts | 68° |
| 2026-05-07 21:07 | 41.23162 | 1.88821 | 3005 ft | 173 kts | 67° |
| 2026-05-07 21:08 | 41.23663 | 1.90270 | 2763 ft | 172 kts | 66° |
| 2026-05-07 21:08 | 41.24155 | 1.91699 | 2534 ft | 169 kts | 67° |
| 2026-05-07 21:08 | 41.24634 | 1.93088 | 2333 ft | 166 kts | 67° |
| 2026-05-07 21:08 | 41.25109 | 1.94465 | 2105 ft | 161 kts | 66° |
| 2026-05-07 21:09 | 41.25567 | 1.95794 | 1887 ft | 154 kts | 67° |
| 2026-05-07 21:09 | 41.25992 | 1.97028 | 1690 ft | 142 kts | 68° |
| 2026-05-07 21:09 | 41.26396 | 1.98201 | 1490 ft | 137 kts | 68° |
| 2026-05-07 21:09 | 41.26789 | 1.99343 | 1313 ft | 135 kts | 68° |
| 2026-05-07 21:10 | 41.27182 | 2.00488 | 1140 ft | 136 kts | 68° |
| 2026-05-07 21:10 | 41.27574 | 2.01633 | 931 ft | 137 kts | 68° |
| 2026-05-07 21:10 | 41.27968 | 2.02774 | 778 ft | 135 kts | 67° |
| 2026-05-07 21:10 | 41.28356 | 2.03888 | 589 ft | 133 kts | 68° |
| 2026-05-07 21:11 | 41.28738 | 2.05022 | 393 ft | 134 kts | 67° |
| 2026-05-07 21:11 | 41.29127 | 2.06147 | 216 ft | 134 kts | 66° |
| 2026-05-07 21:11 | 41.29877 | 2.08346 | 26 ft | 114 kts | 66° |
| 2026-05-07 21:12 | 41.30141 | 2.09117 | 17 ft | 67 kts | 65° |
| 2026-05-07 21:12 | 41.30310 | 2.09460 | 17 ft | 35 kts | 33° |
| 2026-05-07 21:12 | 41.30441 | 2.09531 | 18 ft | 17 kts | 345° |
| 2026-05-07 21:12 | 41.30499 | 2.09459 | 19 ft | 10 kts | 279° |
| 2026-05-07 21:13 | 41.30480 | 2.09383 | 16 ft | 8 kts | 244° |
| 2026-05-07 21:13 | 41.30457 | 2.09317 | 19 ft | 9 kts | 246° |
| 2026-05-07 21:13 | 41.30433 | 2.09242 | 20 ft | 8 kts | 246° |
| 2026-05-07 21:13 | 41.30412 | 2.09181 | 20 ft | 7 kts | 246° |
| 2026-05-07 21:14 | 41.30386 | 2.09102 | 18 ft | 14 kts | 245° |
| 2026-05-07 21:14 | 41.30340 | 2.08968 | 20 ft | 13 kts | 246° |
| 2026-05-07 21:14 | 41.30371 | 2.08879 | 17 ft | 11 kts | 293° |
| 2026-05-07 21:14 | 41.30349 | 2.08784 | 19 ft | 11 kts | 244° |
| 2026-05-07 21:15 | 41.30319 | 2.08699 | 20 ft | 9 kts | 246° |
| 2026-05-07 21:15 | 41.30287 | 2.08602 | 17 ft | 17 kts | 245° |
| 2026-05-07 21:15 | 41.30251 | 2.08487 | 19 ft | 11 kts | 265° |
| 2026-05-07 21:15 | 41.30277 | 2.08444 | 18 ft | 2 kts | 324° |
| 2026-05-07 21:16 | 41.30309 | 2.08425 | 19 ft | 5 kts | 336° |
| 2026-05-07 21:16 | 41.30335 | 2.08411 | 20 ft | 5 kts | 336° |
| 2026-05-07 21:16 | 41.30359 | 2.08397 | 22 ft | 3 kts | 336° |
| 2026-05-07 21:16 | 41.30393 | 2.08366 | 21 ft | 6 kts | 310° |
| 2026-05-07 21:17 | 41.30405 | 2.08323 | 22 ft | 2 kts | 278° |
| 2026-05-07 21:17 | 41.30407 | 2.08310 | 22 ft | 1 kts | 278° |
| 2026-05-07 21:17 | 41.30407 | 2.08309 | 22 ft | 0 kts | 278° |